sensor_id;sensor_type;location;lat;lon;timestamp;P1;durP1;ratioP1;P2;durP2;ratioP2
19587;SDS011;9940;47.252;8.696;2023-02-13T00:00:38;24.55;;;9.63;;
19587;SDS011;9940;47.252;8.696;2023-02-13T00:03:06;23.92;;;9.18;;
19587;SDS011;9940;47.252;8.696;2023-02-13T00:05:32;22.08;;;9.50;;
19587;SDS011;9940;47.252;8.696;2023-02-13T00:08:01;23.35;;;9.65;;
19587;SDS011;9940;47.252;8.696;2023-02-13T00:10:28;22.15;;;9.13;;
19587;SDS011;9940;47.252;8.696;2023-02-13T00:12:54;23.13;;;8.90;;
19587;SDS011;9940;47.252;8.696;2023-02-13T00:15:20;18.67;;;8.77;;
19587;SDS011;9940;47.252;8.696;2023-02-13T00:17:46;20.38;;;9.60;;
19587;SDS011;9940;47.252;8.696;2023-02-13T00:20:12;23.30;;;10.13;;
19587;SDS011;9940;47.252;8.696;2023-02-13T00:22:38;24.92;;;9.63;;
19587;SDS011;9940;47.252;8.696;2023-02-13T00:25:07;24.30;;;9.77;;
19587;SDS011;9940;47.252;8.696;2023-02-13T00:27:33;27.02;;;10.65;;
19587;SDS011;9940;47.252;8.696;2023-02-13T00:29:59;25.23;;;9.90;;
19587;SDS011;9940;47.252;8.696;2023-02-13T00:32:25;25.55;;;10.23;;
19587;SDS011;9940;47.252;8.696;2023-02-13T00:34:51;23.55;;;9.70;;
19587;SDS011;9940;47.252;8.696;2023-02-13T00:37:17;20.48;;;9.65;;
19587;SDS011;9940;47.252;8.696;2023-02-13T00:39:43;24.58;;;9.68;;
19587;SDS011;9940;47.252;8.696;2023-02-13T00:42:09;23.50;;;10.15;;
19587;SDS011;9940;47.252;8.696;2023-02-13T00:44:35;23.10;;;9.65;;
19587;SDS011;9940;47.252;8.696;2023-02-13T00:47:01;22.70;;;10.13;;
19587;SDS011;9940;47.252;8.696;2023-02-13T00:49:30;22.40;;;9.23;;
19587;SDS011;9940;47.252;8.696;2023-02-13T00:51:56;24.50;;;9.98;;
19587;SDS011;9940;47.252;8.696;2023-02-13T00:54:22;23.80;;;10.38;;
19587;SDS011;9940;47.252;8.696;2023-02-13T00:56:48;24.35;;;11.10;;
19587;SDS011;9940;47.252;8.696;2023-02-13T00:59:14;26.73;;;10.52;;
19587;SDS011;9940;47.252;8.696;2023-02-13T01:01:43;25.52;;;10.77;;
19587;SDS011;9940;47.252;8.696;2023-02-13T01:04:09;21.85;;;10.27;;
19587;SDS011;9940;47.252;8.696;2023-02-13T01:06:37;26.02;;;10.00;;
19587;SDS011;9940;47.252;8.696;2023-02-13T01:09:03;24.98;;;10.57;;
19587;SDS011;9940;47.252;8.696;2023-02-13T01:11:29;22.67;;;9.93;;
19587;SDS011;9940;47.252;8.696;2023-02-13T01:13:58;23.30;;;10.15;;
19587;SDS011;9940;47.252;8.696;2023-02-13T01:16:24;24.95;;;11.02;;
19587;SDS011;9940;47.252;8.696;2023-02-13T01:18:50;24.05;;;9.88;;
19587;SDS011;9940;47.252;8.696;2023-02-13T01:21:19;24.17;;;10.15;;
19587;SDS011;9940;47.252;8.696;2023-02-13T01:23:47;27.20;;;11.13;;
19587;SDS011;9940;47.252;8.696;2023-02-13T01:26:18;24.80;;;10.27;;
19587;SDS011;9940;47.252;8.696;2023-02-13T01:28:50;26.90;;;10.88;;
19587;SDS011;9940;47.252;8.696;2023-02-13T01:31:18;25.77;;;11.07;;
19587;SDS011;9940;47.252;8.696;2023-02-13T01:33:44;26.80;;;10.50;;
19587;SDS011;9940;47.252;8.696;2023-02-13T01:36:11;28.88;;;10.20;;
19587;SDS011;9940;47.252;8.696;2023-02-13T01:38:40;26.92;;;11.15;;
19587;SDS011;9940;47.252;8.696;2023-02-13T01:41:07;25.02;;;10.43;;
19587;SDS011;9940;47.252;8.696;2023-02-13T01:46:12;29.92;;;11.10;;
19587;SDS011;9940;47.252;8.696;2023-02-13T01:48:42;29.45;;;11.48;;
19587;SDS011;9940;47.252;8.696;2023-02-13T01:51:10;27.42;;;11.40;;
19587;SDS011;9940;47.252;8.696;2023-02-13T01:56:31;31.48;;;11.93;;
19587;SDS011;9940;47.252;8.696;2023-02-13T01:58:56;32.50;;;12.20;;
19587;SDS011;9940;47.252;8.696;2023-02-13T02:01:23;29.08;;;11.15;;
19587;SDS011;9940;47.252;8.696;2023-02-13T02:03:58;28.90;;;12.05;;
19587;SDS011;9940;47.252;8.696;2023-02-13T02:06:26;31.90;;;12.27;;
19587;SDS011;9940;47.252;8.696;2023-02-13T02:08:53;33.42;;;13.00;;
19587;SDS011;9940;47.252;8.696;2023-02-13T02:11:31;24.27;;;11.15;;
19587;SDS011;9940;47.252;8.696;2023-02-13T02:13:59;28.92;;;12.18;;
19587;SDS011;9940;47.252;8.696;2023-02-13T02:16:29;30.17;;;11.65;;
19587;SDS011;9940;47.252;8.696;2023-02-13T02:18:57;26.75;;;10.55;;
19587;SDS011;9940;47.252;8.696;2023-02-13T02:26:49;27.02;;;10.73;;
19587;SDS011;9940;47.252;8.696;2023-02-13T02:41:54;30.58;;;10.63;;
19587;SDS011;9940;47.252;8.696;2023-02-13T02:44:34;26.98;;;11.18;;
19587;SDS011;9940;47.252;8.696;2023-02-13T02:47:17;27.90;;;10.98;;
19587;SDS011;9940;47.252;8.696;2023-02-13T02:55:29;27.77;;;11.15;;
19587;SDS011;9940;47.252;8.696;2023-02-13T02:57:54;25.05;;;9.70;;
19587;SDS011;9940;47.252;8.696;2023-02-13T03:00:43;28.33;;;11.47;;
19587;SDS011;9940;47.252;8.696;2023-02-13T03:03:42;26.48;;;11.15;;
19587;SDS011;9940;47.252;8.696;2023-02-13T03:06:41;24.65;;;11.13;;
19587;SDS011;9940;47.252;8.696;2023-02-13T03:09:19;23.25;;;9.85;;
19587;SDS011;9940;47.252;8.696;2023-02-13T03:12:08;28.95;;;11.57;;
19587;SDS011;9940;47.252;8.696;2023-02-13T03:14:53;29.25;;;11.65;;
19587;SDS011;9940;47.252;8.696;2023-02-13T03:17:19;29.92;;;11.50;;
19587;SDS011;9940;47.252;8.696;2023-02-13T03:25:25;28.40;;;11.85;;
19587;SDS011;9940;47.252;8.696;2023-02-13T03:38:54;28.70;;;10.88;;
19587;SDS011;9940;47.252;8.696;2023-02-13T03:41:24;26.52;;;10.02;;
19587;SDS011;9940;47.252;8.696;2023-02-13T03:43:57;21.48;;;9.38;;
19587;SDS011;9940;47.252;8.696;2023-02-13T03:46:24;28.55;;;10.25;;
19587;SDS011;9940;47.252;8.696;2023-02-13T03:48:51;26.73;;;10.93;;
19587;SDS011;9940;47.252;8.696;2023-02-13T03:51:55;23.55;;;9.73;;
19587;SDS011;9940;47.252;8.696;2023-02-13T03:57:26;24.35;;;9.73;;
19587;SDS011;9940;47.252;8.696;2023-02-13T04:00:13;23.75;;;10.43;;
19587;SDS011;9940;47.252;8.696;2023-02-13T04:02:42;25.35;;;10.98;;
19587;SDS011;9940;47.252;8.696;2023-02-13T04:05:12;22.95;;;9.98;;
19587;SDS011;9940;47.252;8.696;2023-02-13T04:07:40;26.60;;;10.95;;
19587;SDS011;9940;47.252;8.696;2023-02-13T04:10:10;25.38;;;11.15;;
19587;SDS011;9940;47.252;8.696;2023-02-13T04:15:08;25.38;;;11.98;;
19587;SDS011;9940;47.252;8.696;2023-02-13T04:17:38;26.83;;;11.88;;
19587;SDS011;9940;47.252;8.696;2023-02-13T04:20:05;27.58;;;12.02;;
19587;SDS011;9940;47.252;8.696;2023-02-13T04:22:34;31.65;;;11.80;;
19587;SDS011;9940;47.252;8.696;2023-02-13T04:25:08;25.38;;;11.27;;
19587;SDS011;9940;47.252;8.696;2023-02-13T04:27:34;25.63;;;10.98;;
19587;SDS011;9940;47.252;8.696;2023-02-13T04:30:03;25.27;;;10.60;;
19587;SDS011;9940;47.252;8.696;2023-02-13T04:32:29;27.23;;;11.10;;
19587;SDS011;9940;47.252;8.696;2023-02-13T04:35:00;29.92;;;10.85;;
19587;SDS011;9940;47.252;8.696;2023-02-13T04:37:26;29.88;;;11.38;;
19587;SDS011;9940;47.252;8.696;2023-02-13T04:39:52;29.83;;;11.18;;
19587;SDS011;9940;47.252;8.696;2023-02-13T04:42:18;32.20;;;12.02;;
19587;SDS011;9940;47.252;8.696;2023-02-13T04:44:46;31.10;;;12.57;;
19587;SDS011;9940;47.252;8.696;2023-02-13T04:47:13;32.80;;;12.43;;
19587;SDS011;9940;47.252;8.696;2023-02-13T04:49:39;31.90;;;12.80;;
19587;SDS011;9940;47.252;8.696;2023-02-13T04:52:07;39.25;;;13.43;;
19587;SDS011;9940;47.252;8.696;2023-02-13T04:54:36;37.10;;;13.60;;
19587;SDS011;9940;47.252;8.696;2023-02-13T04:57:04;37.45;;;13.77;;
19587;SDS011;9940;47.252;8.696;2023-02-13T04:59:30;32.55;;;12.00;;
19587;SDS011;9940;47.252;8.696;2023-02-13T05:01:56;30.70;;;12.48;;
19587;SDS011;9940;47.252;8.696;2023-02-13T05:04:23;34.45;;;14.35;;
19587;SDS011;9940;47.252;8.696;2023-02-13T05:06:52;35.15;;;13.55;;
19587;SDS011;9940;47.252;8.696;2023-02-13T05:09:20;33.10;;;12.75;;
19587;SDS011;9940;47.252;8.696;2023-02-13T05:11:49;35.58;;;13.15;;
19587;SDS011;9940;47.252;8.696;2023-02-13T05:14:15;38.80;;;14.35;;
19587;SDS011;9940;47.252;8.696;2023-02-13T05:16:41;36.67;;;13.95;;
19587;SDS011;9940;47.252;8.696;2023-02-13T05:19:07;40.72;;;15.10;;
19587;SDS011;9940;47.252;8.696;2023-02-13T05:21:33;44.67;;;15.68;;
19587;SDS011;9940;47.252;8.696;2023-02-13T05:24:18;42.10;;;14.82;;
19587;SDS011;9940;47.252;8.696;2023-02-13T05:26:44;43.85;;;15.80;;
19587;SDS011;9940;47.252;8.696;2023-02-13T05:29:10;45.58;;;15.43;;
19587;SDS011;9940;47.252;8.696;2023-02-13T05:31:54;44.15;;;14.40;;
19587;SDS011;9940;47.252;8.696;2023-02-13T05:34:21;42.30;;;14.93;;
19587;SDS011;9940;47.252;8.696;2023-02-13T05:36:50;46.47;;;15.02;;
19587;SDS011;9940;47.252;8.696;2023-02-13T05:39:16;36.20;;;14.18;;
19587;SDS011;9940;47.252;8.696;2023-02-13T05:41:43;41.10;;;14.63;;
19587;SDS011;9940;47.252;8.696;2023-02-13T05:44:12;37.30;;;14.45;;
19587;SDS011;9940;47.252;8.696;2023-02-13T05:46:39;38.67;;;13.73;;
19587;SDS011;9940;47.252;8.696;2023-02-13T05:49:08;37.78;;;14.35;;
19587;SDS011;9940;47.252;8.696;2023-02-13T05:51:34;40.70;;;14.00;;
19587;SDS011;9940;47.252;8.696;2023-02-13T05:54:00;36.55;;;13.02;;
19587;SDS011;9940;47.252;8.696;2023-02-13T05:56:26;44.13;;;14.60;;
19587;SDS011;9940;47.252;8.696;2023-02-13T05:58:53;41.97;;;14.25;;
19587;SDS011;9940;47.252;8.696;2023-02-13T06:01:22;43.25;;;13.85;;
19587;SDS011;9940;47.252;8.696;2023-02-13T06:03:48;43.63;;;13.60;;
19587;SDS011;9940;47.252;8.696;2023-02-13T06:06:15;41.45;;;13.40;;
19587;SDS011;9940;47.252;8.696;2023-02-13T06:08:42;43.95;;;15.00;;
19587;SDS011;9940;47.252;8.696;2023-02-13T06:11:08;43.15;;;13.60;;
19587;SDS011;9940;47.252;8.696;2023-02-13T06:13:34;39.22;;;14.02;;
19587;SDS011;9940;47.252;8.696;2023-02-13T06:16:04;40.55;;;14.07;;
19587;SDS011;9940;47.252;8.696;2023-02-13T06:18:33;43.42;;;14.05;;
19587;SDS011;9940;47.252;8.696;2023-02-13T06:21:04;45.17;;;14.70;;
19587;SDS011;9940;47.252;8.696;2023-02-13T06:23:30;41.80;;;13.93;;
19587;SDS011;9940;47.252;8.696;2023-02-13T06:26:05;43.58;;;13.57;;
19587;SDS011;9940;47.252;8.696;2023-02-13T06:28:32;42.30;;;14.63;;
19587;SDS011;9940;47.252;8.696;2023-02-13T06:31:00;43.55;;;14.30;;
19587;SDS011;9940;47.252;8.696;2023-02-13T06:33:26;40.67;;;13.30;;
19587;SDS011;9940;47.252;8.696;2023-02-13T06:35:52;43.20;;;14.70;;
19587;SDS011;9940;47.252;8.696;2023-02-13T06:38:19;40.85;;;14.82;;
19587;SDS011;9940;47.252;8.696;2023-02-13T06:40:45;38.35;;;13.60;;
19587;SDS011;9940;47.252;8.696;2023-02-13T06:43:14;33.55;;;13.57;;
19587;SDS011;9940;47.252;8.696;2023-02-13T06:45:43;44.37;;;14.67;;
19587;SDS011;9940;47.252;8.696;2023-02-13T06:48:11;42.97;;;14.90;;
19587;SDS011;9940;47.252;8.696;2023-02-13T06:50:40;42.45;;;13.20;;
19587;SDS011;9940;47.252;8.696;2023-02-13T06:53:08;40.00;;;13.57;;
19587;SDS011;9940;47.252;8.696;2023-02-13T06:55:34;42.33;;;14.45;;
19587;SDS011;9940;47.252;8.696;2023-02-13T06:58:04;42.28;;;14.70;;
19587;SDS011;9940;47.252;8.696;2023-02-13T07:00:33;40.15;;;13.93;;
19587;SDS011;9940;47.252;8.696;2023-02-13T07:03:03;39.58;;;13.38;;
19587;SDS011;9940;47.252;8.696;2023-02-13T07:05:29;37.67;;;13.63;;
19587;SDS011;9940;47.252;8.696;2023-02-13T07:07:55;35.33;;;12.77;;
19587;SDS011;9940;47.252;8.696;2023-02-13T07:10:21;35.85;;;12.75;;
19587;SDS011;9940;47.252;8.696;2023-02-13T07:12:50;34.03;;;13.23;;
19587;SDS011;9940;47.252;8.696;2023-02-13T07:15:16;34.85;;;12.43;;
19587;SDS011;9940;47.252;8.696;2023-02-13T07:17:42;38.90;;;13.95;;
19587;SDS011;9940;47.252;8.696;2023-02-13T07:20:08;40.80;;;13.77;;
19587;SDS011;9940;47.252;8.696;2023-02-13T07:22:34;41.65;;;13.20;;
19587;SDS011;9940;47.252;8.696;2023-02-13T07:25:01;36.03;;;13.43;;
19587;SDS011;9940;47.252;8.696;2023-02-13T07:27:27;42.55;;;14.35;;
19587;SDS011;9940;47.252;8.696;2023-02-13T07:29:56;39.90;;;14.13;;
19587;SDS011;9940;47.252;8.696;2023-02-13T07:32:25;40.35;;;13.73;;
19587;SDS011;9940;47.252;8.696;2023-02-13T07:34:51;44.45;;;14.13;;
19587;SDS011;9940;47.252;8.696;2023-02-13T07:37:17;41.22;;;13.95;;
19587;SDS011;9940;47.252;8.696;2023-02-13T07:39:45;35.67;;;12.68;;
19587;SDS011;9940;47.252;8.696;2023-02-13T07:42:11;31.48;;;12.25;;
19587;SDS011;9940;47.252;8.696;2023-02-13T07:44:40;38.97;;;13.10;;
19587;SDS011;9940;47.252;8.696;2023-02-13T07:47:06;38.22;;;13.70;;
19587;SDS011;9940;47.252;8.696;2023-02-13T07:49:32;39.45;;;14.20;;
19587;SDS011;9940;47.252;8.696;2023-02-13T07:51:58;38.72;;;13.93;;
19587;SDS011;9940;47.252;8.696;2023-02-13T07:54:26;39.60;;;13.25;;
19587;SDS011;9940;47.252;8.696;2023-02-13T07:56:53;36.92;;;13.85;;
19587;SDS011;9940;47.252;8.696;2023-02-13T07:59:19;38.20;;;12.55;;
19587;SDS011;9940;47.252;8.696;2023-02-13T08:01:47;41.83;;;14.48;;
19587;SDS011;9940;47.252;8.696;2023-02-13T08:04:13;42.45;;;13.10;;
19587;SDS011;9940;47.252;8.696;2023-02-13T08:06:39;34.10;;;13.07;;
19587;SDS011;9940;47.252;8.696;2023-02-13T08:09:13;37.05;;;13.80;;
19587;SDS011;9940;47.252;8.696;2023-02-13T08:12:01;35.70;;;12.13;;
19587;SDS011;9940;47.252;8.696;2023-02-13T08:14:27;37.95;;;12.95;;
19587;SDS011;9940;47.252;8.696;2023-02-13T08:16:57;32.67;;;12.88;;
19587;SDS011;9940;47.252;8.696;2023-02-13T08:19:24;35.78;;;12.23;;
19587;SDS011;9940;47.252;8.696;2023-02-13T08:21:50;39.42;;;13.85;;
19587;SDS011;9940;47.252;8.696;2023-02-13T08:24:16;39.33;;;13.35;;
19587;SDS011;9940;47.252;8.696;2023-02-13T08:26:42;41.65;;;13.75;;
19587;SDS011;9940;47.252;8.696;2023-02-13T08:29:10;37.47;;;13.02;;
19587;SDS011;9940;47.252;8.696;2023-02-13T08:31:36;37.03;;;13.48;;
19587;SDS011;9940;47.252;8.696;2023-02-13T08:34:02;36.50;;;13.60;;
19587;SDS011;9940;47.252;8.696;2023-02-13T08:36:31;40.65;;;13.25;;
19587;SDS011;9940;47.252;8.696;2023-02-13T08:38:57;34.72;;;12.82;;
19587;SDS011;9940;47.252;8.696;2023-02-13T08:41:23;36.42;;;12.32;;
19587;SDS011;9940;47.252;8.696;2023-02-13T08:43:49;41.63;;;12.13;;
19587;SDS011;9940;47.252;8.696;2023-02-13T08:46:16;36.50;;;13.07;;
19587;SDS011;9940;47.252;8.696;2023-02-13T08:48:42;38.03;;;12.52;;
19587;SDS011;9940;47.252;8.696;2023-02-13T08:51:09;37.45;;;13.07;;
19587;SDS011;9940;47.252;8.696;2023-02-13T08:53:36;39.33;;;13.02;;
19587;SDS011;9940;47.252;8.696;2023-02-13T08:56:02;33.78;;;12.68;;
19587;SDS011;9940;47.252;8.696;2023-02-13T08:58:29;41.53;;;13.55;;
19587;SDS011;9940;47.252;8.696;2023-02-13T09:00:55;37.47;;;11.95;;
19587;SDS011;9940;47.252;8.696;2023-02-13T09:03:23;40.75;;;13.75;;
19587;SDS011;9940;47.252;8.696;2023-02-13T09:05:49;36.63;;;12.68;;
19587;SDS011;9940;47.252;8.696;2023-02-13T09:08:18;41.90;;;13.13;;
19587;SDS011;9940;47.252;8.696;2023-02-13T09:10:44;39.88;;;13.38;;
19587;SDS011;9940;47.252;8.696;2023-02-13T09:13:10;36.03;;;12.63;;
19587;SDS011;9940;47.252;8.696;2023-02-13T09:15:39;34.78;;;12.43;;
19587;SDS011;9940;47.252;8.696;2023-02-13T09:18:05;33.13;;;12.20;;
19587;SDS011;9940;47.252;8.696;2023-02-13T09:20:31;35.15;;;11.85;;
19587;SDS011;9940;47.252;8.696;2023-02-13T09:23:00;38.33;;;13.68;;
19587;SDS011;9940;47.252;8.696;2023-02-13T09:25:26;37.42;;;13.35;;
19587;SDS011;9940;47.252;8.696;2023-02-13T09:27:52;39.22;;;12.45;;
19587;SDS011;9940;47.252;8.696;2023-02-13T09:30:20;44.05;;;14.68;;
19587;SDS011;9940;47.252;8.696;2023-02-13T09:32:50;37.13;;;12.95;;
19587;SDS011;9940;47.252;8.696;2023-02-13T09:35:16;33.97;;;12.30;;
19587;SDS011;9940;47.252;8.696;2023-02-13T09:37:42;36.10;;;13.52;;
19587;SDS011;9940;47.252;8.696;2023-02-13T09:40:16;39.45;;;13.95;;
19587;SDS011;9940;47.252;8.696;2023-02-13T09:42:43;33.00;;;13.17;;
19587;SDS011;9940;47.252;8.696;2023-02-13T09:45:09;36.88;;;12.30;;
19587;SDS011;9940;47.252;8.696;2023-02-13T09:47:40;34.38;;;12.65;;
19587;SDS011;9940;47.252;8.696;2023-02-13T09:52:46;34.25;;;11.70;;
19587;SDS011;9940;47.252;8.696;2023-02-13T09:55:15;34.08;;;12.20;;
19587;SDS011;9940;47.252;8.696;2023-02-13T10:00:25;40.42;;;12.55;;
19587;SDS011;9940;47.252;8.696;2023-02-13T10:18:11;32.78;;;12.48;;
19587;SDS011;9940;47.252;8.696;2023-02-13T10:20:47;33.85;;;12.43;;
19587;SDS011;9940;47.252;8.696;2023-02-13T10:23:20;36.30;;;13.07;;
19587;SDS011;9940;47.252;8.696;2023-02-13T10:28:20;37.38;;;12.63;;
19587;SDS011;9940;47.252;8.696;2023-02-13T10:30:53;34.88;;;12.45;;
19587;SDS011;9940;47.252;8.696;2023-02-13T10:33:27;33.75;;;12.88;;
19587;SDS011;9940;47.252;8.696;2023-02-13T10:36:06;34.17;;;12.23;;
19587;SDS011;9940;47.252;8.696;2023-02-13T10:38:40;31.02;;;12.93;;
19587;SDS011;9940;47.252;8.696;2023-02-13T10:43:46;38.45;;;12.18;;
19587;SDS011;9940;47.252;8.696;2023-02-13T10:46:24;34.13;;;12.00;;
19587;SDS011;9940;47.252;8.696;2023-02-13T10:51:54;33.08;;;12.15;;
19587;SDS011;9940;47.252;8.696;2023-02-13T10:59:18;38.33;;;13.77;;
19587;SDS011;9940;47.252;8.696;2023-02-13T11:01:56;37.70;;;12.93;;
19587;SDS011;9940;47.252;8.696;2023-02-13T11:04:25;40.72;;;13.68;;
19587;SDS011;9940;47.252;8.696;2023-02-13T11:06:55;35.67;;;13.93;;
19587;SDS011;9940;47.252;8.696;2023-02-13T11:09:22;39.08;;;12.95;;
19587;SDS011;9940;47.252;8.696;2023-02-13T11:11:48;36.42;;;13.18;;
19587;SDS011;9940;47.252;8.696;2023-02-13T11:14:18;38.35;;;13.02;;
19587;SDS011;9940;47.252;8.696;2023-02-13T11:17:04;36.88;;;12.77;;
19587;SDS011;9940;47.252;8.696;2023-02-13T11:22:34;34.92;;;12.73;;
19587;SDS011;9940;47.252;8.696;2023-02-13T11:27:29;33.65;;;12.40;;
19587;SDS011;9940;47.252;8.696;2023-02-13T11:29:56;36.28;;;13.57;;
19587;SDS011;9940;47.252;8.696;2023-02-13T11:32:24;35.28;;;12.85;;
19587;SDS011;9940;47.252;8.696;2023-02-13T11:34:50;37.00;;;13.27;;
19587;SDS011;9940;47.252;8.696;2023-02-13T11:39:45;36.67;;;12.30;;
19587;SDS011;9940;47.252;8.696;2023-02-13T11:42:13;32.15;;;11.93;;
19587;SDS011;9940;47.252;8.696;2023-02-13T11:44:40;34.35;;;12.77;;
19587;SDS011;9940;47.252;8.696;2023-02-13T11:47:09;37.15;;;13.07;;
19587;SDS011;9940;47.252;8.696;2023-02-13T11:49:36;42.10;;;13.77;;
19587;SDS011;9940;47.252;8.696;2023-02-13T11:52:06;35.13;;;13.20;;
19587;SDS011;9940;47.252;8.696;2023-02-13T11:54:33;39.05;;;14.05;;
19587;SDS011;9940;47.252;8.696;2023-02-13T11:59:46;39.53;;;13.77;;
19587;SDS011;9940;47.252;8.696;2023-02-13T12:02:28;37.85;;;12.90;;
19587;SDS011;9940;47.252;8.696;2023-02-13T12:05:14;35.65;;;12.82;;
19587;SDS011;9940;47.252;8.696;2023-02-13T12:07:41;39.17;;;13.50;;
19587;SDS011;9940;47.252;8.696;2023-02-13T12:10:15;37.67;;;13.07;;
19587;SDS011;9940;47.252;8.696;2023-02-13T12:12:53;37.50;;;13.32;;
19587;SDS011;9940;47.252;8.696;2023-02-13T12:15:26;36.22;;;12.90;;
19587;SDS011;9940;47.252;8.696;2023-02-13T12:41:53;34.88;;;13.75;;
19587;SDS011;9940;47.252;8.696;2023-02-13T13:00:09;28.58;;;14.63;;
19587;SDS011;9940;47.252;8.696;2023-02-13T13:02:47;31.23;;;15.00;;
19587;SDS011;9940;47.252;8.696;2023-02-13T13:05:39;33.40;;;16.88;;
19587;SDS011;9940;47.252;8.696;2023-02-13T13:08:19;31.98;;;15.15;;
19587;SDS011;9940;47.252;8.696;2023-02-13T13:18:53;31.08;;;15.60;;
19587;SDS011;9940;47.252;8.696;2023-02-13T13:26:40;32.15;;;16.20;;
19587;SDS011;9940;47.252;8.696;2023-02-13T13:29:11;34.42;;;16.52;;
19587;SDS011;9940;47.252;8.696;2023-02-13T13:31:39;29.47;;;15.30;;
19587;SDS011;9940;47.252;8.696;2023-02-13T13:34:06;31.27;;;15.10;;
19587;SDS011;9940;47.252;8.696;2023-02-13T13:39:08;32.28;;;15.38;;
19587;SDS011;9940;47.252;8.696;2023-02-13T13:47:01;31.35;;;15.60;;
19587;SDS011;9940;47.252;8.696;2023-02-13T13:54:45;30.77;;;13.63;;
19587;SDS011;9940;47.252;8.696;2023-02-13T13:57:16;32.53;;;15.05;;
19587;SDS011;9940;47.252;8.696;2023-02-13T14:07:32;29.55;;;13.50;;
19587;SDS011;9940;47.252;8.696;2023-02-13T14:09:58;30.23;;;14.23;;
19587;SDS011;9940;47.252;8.696;2023-02-13T14:14:54;34.47;;;15.43;;
19587;SDS011;9940;47.252;8.696;2023-02-13T14:22:46;33.85;;;14.40;;
19587;SDS011;9940;47.252;8.696;2023-02-13T14:25:23;30.15;;;13.63;;
19587;SDS011;9940;47.252;8.696;2023-02-13T14:27:59;25.15;;;12.80;;
19587;SDS011;9940;47.252;8.696;2023-02-13T14:30:35;25.70;;;12.18;;
19587;SDS011;9940;47.252;8.696;2023-02-13T14:33:05;25.92;;;11.77;;
19587;SDS011;9940;47.252;8.696;2023-02-13T14:35:36;27.90;;;12.68;;
19587;SDS011;9940;47.252;8.696;2023-02-13T14:38:16;25.58;;;12.32;;
19587;SDS011;9940;47.252;8.696;2023-02-13T14:45:46;24.05;;;11.27;;
19587;SDS011;9940;47.252;8.696;2023-02-13T14:48:12;24.98;;;11.63;;
19587;SDS011;9940;47.252;8.696;2023-02-13T14:53:32;27.80;;;12.48;;
19587;SDS011;9940;47.252;8.696;2023-02-13T14:56:05;26.67;;;12.35;;
19587;SDS011;9940;47.252;8.696;2023-02-13T14:58:35;28.98;;;12.43;;
19587;SDS011;9940;47.252;8.696;2023-02-13T15:03:47;27.50;;;12.40;;
19587;SDS011;9940;47.252;8.696;2023-02-13T15:06:27;32.15;;;12.68;;
19587;SDS011;9940;47.252;8.696;2023-02-13T15:08:59;29.40;;;13.45;;
19587;SDS011;9940;47.252;8.696;2023-02-13T15:11:37;27.48;;;12.02;;
19587;SDS011;9940;47.252;8.696;2023-02-13T15:16:41;28.05;;;12.57;;
19587;SDS011;9940;47.252;8.696;2023-02-13T15:19:14;31.50;;;12.88;;
19587;SDS011;9940;47.252;8.696;2023-02-13T15:21:45;26.75;;;12.68;;
19587;SDS011;9940;47.252;8.696;2023-02-13T15:24:12;29.13;;;12.88;;
19587;SDS011;9940;47.252;8.696;2023-02-13T15:26:39;30.60;;;13.15;;
19587;SDS011;9940;47.252;8.696;2023-02-13T15:29:16;30.58;;;13.00;;
19587;SDS011;9940;47.252;8.696;2023-02-13T15:31:42;27.88;;;12.30;;
19587;SDS011;9940;47.252;8.696;2023-02-13T15:37:19;28.10;;;12.70;;
19587;SDS011;9940;47.252;8.696;2023-02-13T15:39:45;24.67;;;11.27;;
19587;SDS011;9940;47.252;8.696;2023-02-13T15:42:11;25.20;;;11.80;;
19587;SDS011;9940;47.252;8.696;2023-02-13T15:44:37;31.20;;;13.38;;
19587;SDS011;9940;47.252;8.696;2023-02-13T15:47:06;30.50;;;13.10;;
19587;SDS011;9940;47.252;8.696;2023-02-13T15:49:36;26.52;;;12.55;;
19587;SDS011;9940;47.252;8.696;2023-02-13T15:52:20;27.63;;;12.70;;
19587;SDS011;9940;47.252;8.696;2023-02-13T15:54:53;31.38;;;13.90;;
19587;SDS011;9940;47.252;8.696;2023-02-13T15:57:20;27.05;;;12.38;;
19587;SDS011;9940;47.252;8.696;2023-02-13T15:59:47;30.85;;;12.75;;
19587;SDS011;9940;47.252;8.696;2023-02-13T16:02:18;27.42;;;12.45;;
19587;SDS011;9940;47.252;8.696;2023-02-13T16:04:45;32.55;;;14.00;;
19587;SDS011;9940;47.252;8.696;2023-02-13T16:07:12;32.78;;;13.45;;
19587;SDS011;9940;47.252;8.696;2023-02-13T16:09:39;33.92;;;14.00;;
19587;SDS011;9940;47.252;8.696;2023-02-13T16:17:21;28.67;;;12.70;;
19587;SDS011;9940;47.252;8.696;2023-02-13T16:22:36;32.88;;;14.20;;
19587;SDS011;9940;47.252;8.696;2023-02-13T16:27:48;35.10;;;13.52;;
19587;SDS011;9940;47.252;8.696;2023-02-13T16:30:36;32.60;;;13.75;;
19587;SDS011;9940;47.252;8.696;2023-02-13T16:35:57;35.13;;;14.18;;
19587;SDS011;9940;47.252;8.696;2023-02-13T16:40:53;34.60;;;14.93;;
19587;SDS011;9940;47.252;8.696;2023-02-13T16:43:39;35.13;;;14.73;;
19587;SDS011;9940;47.252;8.696;2023-02-13T16:48:44;36.90;;;14.50;;
19587;SDS011;9940;47.252;8.696;2023-02-13T16:51:11;33.88;;;13.70;;
19587;SDS011;9940;47.252;8.696;2023-02-13T16:53:40;36.55;;;13.45;;
19587;SDS011;9940;47.252;8.696;2023-02-13T16:56:07;40.50;;;13.23;;
19587;SDS011;9940;47.252;8.696;2023-02-13T16:58:36;41.60;;;13.18;;
19587;SDS011;9940;47.252;8.696;2023-02-13T17:01:02;36.53;;;13.13;;
19587;SDS011;9940;47.252;8.696;2023-02-13T17:03:30;40.08;;;15.15;;
19587;SDS011;9940;47.252;8.696;2023-02-13T17:06:00;34.85;;;14.88;;
19587;SDS011;9940;47.252;8.696;2023-02-13T17:08:28;36.28;;;14.50;;
19587;SDS011;9940;47.252;8.696;2023-02-13T17:11:01;39.80;;;14.30;;
19587;SDS011;9940;47.252;8.696;2023-02-13T17:13:28;34.58;;;14.18;;
19587;SDS011;9940;47.252;8.696;2023-02-13T17:15:56;33.05;;;12.70;;
19587;SDS011;9940;47.252;8.696;2023-02-13T17:18:24;33.17;;;13.15;;
19587;SDS011;9940;47.252;8.696;2023-02-13T17:20:50;32.60;;;13.23;;
19587;SDS011;9940;47.252;8.696;2023-02-13T17:23:17;36.38;;;13.88;;
19587;SDS011;9940;47.252;8.696;2023-02-13T17:25:46;38.20;;;14.05;;
19587;SDS011;9940;47.252;8.696;2023-02-13T17:30:39;33.28;;;12.93;;
19587;SDS011;9940;47.252;8.696;2023-02-13T17:33:09;35.95;;;13.27;;
19587;SDS011;9940;47.252;8.696;2023-02-13T17:35:35;30.10;;;12.32;;
19587;SDS011;9940;47.252;8.696;2023-02-13T17:38:01;31.92;;;13.13;;
19587;SDS011;9940;47.252;8.696;2023-02-13T17:40:27;33.60;;;13.23;;
19587;SDS011;9940;47.252;8.696;2023-02-13T17:42:56;36.00;;;12.85;;
19587;SDS011;9940;47.252;8.696;2023-02-13T17:45:23;29.67;;;12.30;;
19587;SDS011;9940;47.252;8.696;2023-02-13T17:47:49;28.10;;;11.85;;
19587;SDS011;9940;47.252;8.696;2023-02-13T17:50:16;32.25;;;12.77;;
19587;SDS011;9940;47.252;8.696;2023-02-13T17:52:46;29.92;;;12.23;;
19587;SDS011;9940;47.252;8.696;2023-02-13T17:55:20;29.58;;;11.80;;
19587;SDS011;9940;47.252;8.696;2023-02-13T17:57:48;27.17;;;11.27;;
19587;SDS011;9940;47.252;8.696;2023-02-13T18:00:17;31.63;;;12.85;;
19587;SDS011;9940;47.252;8.696;2023-02-13T18:02:46;32.33;;;13.35;;
19587;SDS011;9940;47.252;8.696;2023-02-13T18:05:16;35.83;;;13.45;;
19587;SDS011;9940;47.252;8.696;2023-02-13T18:07:43;29.02;;;12.00;;
19587;SDS011;9940;47.252;8.696;2023-02-13T18:10:12;31.88;;;12.98;;
19587;SDS011;9940;47.252;8.696;2023-02-13T18:12:39;32.92;;;12.48;;
19587;SDS011;9940;47.252;8.696;2023-02-13T18:15:06;33.70;;;12.10;;
19587;SDS011;9940;47.252;8.696;2023-02-13T18:17:32;30.25;;;12.27;;
19587;SDS011;9940;47.252;8.696;2023-02-13T18:19:58;30.25;;;12.07;;
19587;SDS011;9940;47.252;8.696;2023-02-13T18:22:27;38.42;;;13.35;;